新潟 の空港の天気 - METARとTAF

新潟空港 ( RJSN / KIJ ) - 新潟県新潟市
飛行場実況気象(Metar)
観測時間02/28 09:00 JST (02/28 00:00 UTC)
風向・風速東南東 2m/s
視程10km以上
天気現象
少しの雲 雲底高度 1220m
気温2℃
湿度55%
気圧1027hPa
METARRJSN 280000Z 11004KT 9999 FEW040 02/M06 Q1027
過去の天気等 Google飛行場航空写真 Wunderground天気予報

過去48時間のMETAR

飛行場予報(TAF)
発表時間: 2/28 08:05 JST (2/27 23:05 UTC)
予報対象時間: 28日9時 JST ~ 1日15時 JST
風向・風速北北東 3m/s
視程10km以上
少しの雲 雲底高度 910m
28日10時 JST ~ 28日12時 JST に徐々に
風向・風速北 4m/s
28日17時 JST ~ 28日19時 JST に徐々に
風向・風速南 3m/s
1日9時 JST ~ 1日12時 JST に徐々に
風向・風速北北西 3m/s
TAF RJSN 272305Z 2800/0106 02006KT 9999 FEW030
BECMG 2801/2803 36008KT
BECMG 2808/2810 18006KT
BECMG 0100/0103 34006KT
日本の空港のMETAR・TAFへのリンク

RJTT 東京国際空港
RJAA 新東京国際空港
RJBB 関西国際空港
RJOO 大阪空港
RJGG 中部国際空港
RJCC 新千歳空港
RJFF 福岡空港
ROAH 那覇空港


RJEC 旭川空港
RJCH 函館空港
RJCK 釧路空港
RJCM 女満別空港
RJCB 帯広空港
RJSA 青森空港
RJSS 仙台空港
RJSK 秋田空港
RJSF 福島空港
RJAH 茨城空港
RJSN 新潟空港
RJNT 富山空港
RJNK 小松飛行場
RJNS 静岡空港
RJOH 美保飛行場
RJOC 出雲空港
RJOB 岡山空港
RJOA 広島空港
RJOI 岩国飛行場
RJOT 高松空港
RJOM 松山空港
RJOK 高知空港
RJFR 北九州空港
RJFT 熊本空港
RJFU 長崎空港
RJFS 佐賀空港
RJFO 大分空港
RJFM 宮崎空港
RJFK 鹿児島空港
ROIG 石垣島空港
RJTY 横田飛行場
ROTM 普天間飛行場
RODN 嘉手納飛行場